createdAt,value
2022-11-07T01:18:57.786Z,0.90
2022-11-07T01:21:27.632Z,1.00
2022-11-07T01:23:57.681Z,1.10
2022-11-07T01:26:28.730Z,0.70
2022-11-07T01:28:58.668Z,0.93
2022-11-07T01:31:28.535Z,1.55
2022-11-07T01:33:58.413Z,0.80
2022-11-07T01:36:29.782Z,0.70
2022-11-07T01:38:59.663Z,1.00
2022-11-07T01:41:31.098Z,0.85
2022-11-07T01:44:01.031Z,0.82
2022-11-07T01:46:40.969Z,0.70
2022-11-07T01:49:19.125Z,0.98
2022-11-07T01:51:51.849Z,0.90
2022-11-07T01:54:23.935Z,0.85
2022-11-07T01:56:54.674Z,0.80
2022-11-07T01:59:26.718Z,1.17
2022-11-07T02:01:57.292Z,0.80
2022-11-07T02:04:29.013Z,0.90
2022-11-07T02:07:01.949Z,0.80
2022-11-07T02:09:32.138Z,0.75
2022-11-07T02:12:02.623Z,0.80
2022-11-07T02:14:32.755Z,0.73
2022-11-07T06:44:00.475Z,1.02
2022-11-07T06:46:30.357Z,0.85
2022-11-07T06:49:00.228Z,0.90
2022-11-07T06:51:30.269Z,0.95
2022-11-07T06:54:00.520Z,1.02
2022-11-07T06:56:30.426Z,1.00
2022-11-07T06:59:00.273Z,1.00
2022-11-07T07:01:30.351Z,0.90
2022-11-07T07:04:02.497Z,1.08
2022-11-07T07:06:32.358Z,1.20
2022-11-07T07:09:02.322Z,1.10
2022-11-07T07:11:32.595Z,1.10
2022-11-07T07:14:02.731Z,1.55
2022-11-07T07:16:33.207Z,1.40
2022-11-07T07:19:03.480Z,1.10
2022-11-07T07:21:33.807Z,1.17
2022-11-07T07:24:03.710Z,1.17
2022-11-07T07:26:33.605Z,1.10
2022-11-07T07:29:03.470Z,1.20
2022-11-07T07:31:34.214Z,1.35
2022-11-07T07:34:04.103Z,1.55
2022-11-07T07:36:34.734Z,1.30
2022-11-07T07:39:05.689Z,1.25
2022-11-07T09:53:28.113Z,1.30
2022-11-07T09:56:03.222Z,1.50
2022-11-07T09:58:36.827Z,1.60
2022-11-07T10:01:08.531Z,1.50
2022-11-07T10:03:43.149Z,1.40
2022-11-07T10:06:36.943Z,1.35
2022-11-07T10:09:06.822Z,1.48
2022-11-07T10:11:48.926Z,1.20
2022-11-07T10:14:21.801Z,1.60
2022-11-07T10:17:14.460Z,1.50
2022-11-07T10:20:02.654Z,1.33
2022-11-07T10:22:50.889Z,1.20
2022-11-07T10:25:27.421Z,1.30
2022-11-07T10:28:04.296Z,1.30
2022-11-07T10:30:34.249Z,1.40
2022-11-07T10:33:08.190Z,1.10
2022-11-07T10:35:40.536Z,1.30
2022-11-07T10:38:25.008Z,1.25
2022-11-07T10:40:55.587Z,1.30
2022-11-07T10:43:34.483Z,1.20
2022-11-07T10:46:05.470Z,1.30
2022-11-07T10:48:35.388Z,1.38
2022-11-07T10:51:06.297Z,1.58
2022-11-07T10:53:47.167Z,1.20
2022-11-07T10:56:17.788Z,1.48
2022-11-07T10:58:48.340Z,1.25
2022-11-07T11:01:26.077Z,1.77
2022-11-07T11:03:56.622Z,1.30
2022-11-07T11:06:32.041Z,1.33
2022-11-07T11:09:02.276Z,1.40
2022-11-07T11:11:32.347Z,1.55
2022-11-07T11:14:06.861Z,1.40
2022-11-07T11:16:39.029Z,1.30
2022-11-07T11:19:09.799Z,1.65
2022-11-07T11:21:48.773Z,1.40
2022-11-07T15:05:53.589Z,3.50
2022-11-07T15:08:29.830Z,2.70
2022-11-07T15:11:04.501Z,2.30
2022-11-07T15:13:34.923Z,2.15
2022-11-07T15:16:17.128Z,2.55
2022-11-07T15:18:48.380Z,2.20
2022-11-07T15:21:35.547Z,2.45
2022-11-07T15:24:25.381Z,2.30
2022-11-07T15:27:06.214Z,2.45
2022-11-07T15:29:37.601Z,2.20
2022-11-07T15:32:18.638Z,2.20
2022-11-07T15:35:23.199Z,1.90
2022-11-07T15:37:39.608Z,2.20
2022-11-07T15:40:17.989Z,2.10
2022-11-07T15:42:48.893Z,1.90
2022-11-07T15:45:19.099Z,1.83
2022-11-07T15:47:50.784Z,2.05
2022-11-07T15:50:22.217Z,2.47
2022-11-07T15:52:52.143Z,1.88
2022-11-07T15:55:22.974Z,1.90
2022-11-07T15:57:53.992Z,1.92
2022-11-07T16:00:25.314Z,1.77
2022-11-07T16:02:55.694Z,1.55
2022-11-07T16:05:25.746Z,1.70
2022-11-07T16:07:55.891Z,1.13
2022-11-07T16:10:27.353Z,2.03
2022-11-07T16:13:00.997Z,1.20
2022-11-07T16:15:36.313Z,1.40
2022-11-07T16:18:06.408Z,1.45
2022-11-07T16:20:36.291Z,1.08
2022-11-07T16:23:06.851Z,1.55
2022-11-07T16:25:36.696Z,1.10
2022-11-07T16:28:06.803Z,1.08
2022-11-07T16:30:37.383Z,1.08
2022-11-07T16:33:07.274Z,1.10
2022-11-07T16:35:37.114Z,1.00
2022-11-07T16:38:19.933Z,0.85
2022-11-07T16:40:50.401Z,1.00
2022-11-07T16:43:20.893Z,1.08
2022-11-07T16:45:55.011Z,1.23
2022-11-07T16:48:32.187Z,1.10
2022-11-07T16:51:02.030Z,1.10
2022-11-07T16:53:32.108Z,1.30
2022-11-07T16:56:04.632Z,1.00
2022-11-07T16:58:37.610Z,0.90
2022-11-07T17:01:08.722Z,0.77
2022-11-07T17:03:38.638Z,0.80
2022-11-07T17:06:08.610Z,0.88
2022-11-07T17:08:44.936Z,0.90
2022-11-07T17:11:18.632Z,0.98
2022-11-07T17:13:49.388Z,0.93
2022-11-07T17:16:26.066Z,0.82
2022-11-07T17:18:56.438Z,0.90
2022-11-07T17:21:30.881Z,1.45
2022-11-07T17:24:01.895Z,1.15
2022-11-07T17:26:40.361Z,1.00
2022-11-07T17:29:10.995Z,0.90
2022-11-07T17:31:40.941Z,1.00
2022-11-07T17:34:11.011Z,1.00
2022-11-07T17:36:47.430Z,1.30
2022-11-07T17:39:19.906Z,0.90
2022-11-07T17:41:51.357Z,1.38
2022-11-07T17:44:21.902Z,1.08
2022-11-07T17:46:52.907Z,1.13
2022-11-07T17:49:24.748Z,1.00
2022-11-07T17:51:56.055Z,1.02
2022-11-07T17:54:29.504Z,1.10
2022-11-07T17:57:00.131Z,1.20
2022-11-07T17:59:30.280Z,1.20
2022-11-07T18:02:00.745Z,1.50
2022-11-07T18:04:31.098Z,1.10
2022-11-07T18:07:01.045Z,1.15
2022-11-07T18:09:31.450Z,1.30
2022-11-07T18:12:01.382Z,2.55
2022-11-07T18:14:31.304Z,1.85
2022-11-07T18:17:01.237Z,1.20
2022-11-07T18:19:31.284Z,1.25
2022-11-07T18:22:01.269Z,1.02
2022-11-07T18:24:31.244Z,1.30
2022-11-07T18:27:01.089Z,1.10
2022-11-07T18:29:31.224Z,1.40
2022-11-07T18:32:01.124Z,1.30
2022-11-07T18:34:31.022Z,1.20
2022-11-07T18:37:00.891Z,1.10
2022-11-07T18:51:52.296Z,1.55
2022-11-07T18:54:24.065Z,1.00
2022-11-07T18:56:54.719Z,1.40
2022-11-07T18:59:25.074Z,1.10
2022-11-07T19:01:55.488Z,1.13
2022-11-07T19:04:25.359Z,1.23
2022-11-07T19:07:01.392Z,0.93
2022-11-07T19:09:32.614Z,1.00
2022-11-07T19:12:03.473Z,1.10
2022-11-07T19:14:34.264Z,1.00
2022-11-07T19:17:04.614Z,1.00
2022-11-07T19:19:35.651Z,1.00
2022-11-07T19:22:07.563Z,1.05
2022-11-07T19:24:37.839Z,1.00
2022-11-07T19:27:08.157Z,1.10
2022-11-07T19:29:38.458Z,1.10
2022-11-07T19:32:09.091Z,1.10
2022-11-07T19:34:39.362Z,1.08
2022-11-07T19:37:09.764Z,1.00
2022-11-07T19:39:40.143Z,1.10
2022-11-07T19:42:10.063Z,1.23
2022-11-07T19:44:44.874Z,1.20
2022-11-07T19:47:19.172Z,1.10
2022-11-07T19:49:49.444Z,1.08
2022-11-07T19:55:04.964Z,1.15
2022-11-07T19:57:34.839Z,1.25
2022-11-07T20:00:05.030Z,1.15
2022-11-07T20:02:38.792Z,1.10
2022-11-07T20:05:12.611Z,1.00
2022-11-07T20:07:42.929Z,1.05
2022-11-07T20:10:13.293Z,1.13
2022-11-07T20:12:43.561Z,1.40
2022-11-07T20:15:14.556Z,1.20
2022-11-07T20:17:45.309Z,1.20
2022-11-07T20:20:15.638Z,1.42
2022-11-07T20:22:49.519Z,1.50
2022-11-07T20:25:19.438Z,1.40
2022-11-07T20:27:49.736Z,2.10
2022-11-07T20:30:19.635Z,1.60
2022-11-07T20:32:49.665Z,2.08
2022-11-07T20:35:19.986Z,2.13
2022-11-07T20:37:50.063Z,2.15
2022-11-07T20:40:21.277Z,2.63
2022-11-07T20:42:52.802Z,2.50
2022-11-07T20:45:22.672Z,2.50
2022-11-07T20:47:52.980Z,2.65
2022-11-07T20:50:22.848Z,2.58
2022-11-07T20:52:57.297Z,2.88
